sensor_id;sensor_type;location;lat;lon;timestamp;pressure;altitude;pressure_sealevel;temperature;humidity
19553;BME280;9420;50.876;7.012;2022-08-19T00:01:22;100789.50;;;36.19;44.87
19553;BME280;9420;50.876;7.012;2022-08-19T00:03:50;100792.22;;;36.19;44.47
19553;BME280;9420;50.876;7.012;2022-08-19T00:06:17;100795.44;;;36.42;44.23
19553;BME280;9420;50.876;7.012;2022-08-19T00:08:46;100794.88;;;35.79;45.46
19553;BME280;9420;50.876;7.012;2022-08-19T00:11:14;100782.59;;;35.62;45.66
19553;BME280;9420;50.876;7.012;2022-08-19T00:13:41;100785.13;;;35.17;46.48
19553;BME280;9420;50.876;7.012;2022-08-19T00:16:08;100788.97;;;35.69;46.82
19553;BME280;9420;50.876;7.012;2022-08-19T00:18:35;100787.66;;;34.90;48.48
19553;BME280;9420;50.876;7.012;2022-08-19T00:21:02;100787.78;;;35.03;48.10
19553;BME280;9420;50.876;7.012;2022-08-19T00:23:34;100796.31;;;34.60;49.43
19553;BME280;9420;50.876;7.012;2022-08-19T00:26:04;100798.31;;;35.00;48.52
19553;BME280;9420;50.876;7.012;2022-08-19T00:28:32;100792.13;;;35.32;47.09
19553;BME280;9420;50.876;7.012;2022-08-19T00:31:02;100794.44;;;35.29;47.34
19553;BME280;9420;50.876;7.012;2022-08-19T00:33:30;100792.09;;;35.19;47.32
19553;BME280;9420;50.876;7.012;2022-08-19T00:35:58;100789.72;;;34.82;48.41
19553;BME280;9420;50.876;7.012;2022-08-19T00:38:26;100786.34;;;34.80;48.37
19553;BME280;9420;50.876;7.012;2022-08-19T00:40:54;100792.16;;;34.98;47.93
19553;BME280;9420;50.876;7.012;2022-08-19T00:43:26;100789.00;;;34.46;49.18
19553;BME280;9420;50.876;7.012;2022-08-19T00:45:54;100788.47;;;34.57;49.58
19553;BME280;9420;50.876;7.012;2022-08-19T00:48:22;100791.84;;;34.37;50.03
19553;BME280;9420;50.876;7.012;2022-08-19T00:50:52;100791.41;;;35.51;47.60
19553;BME280;9420;50.876;7.012;2022-08-19T00:53:26;100792.13;;;35.32;48.12
19553;BME280;9420;50.876;7.012;2022-08-19T00:55:58;100789.00;;;35.35;47.33
19553;BME280;9420;50.876;7.012;2022-08-19T00:58:32;100789.22;;;35.40;47.37
19553;BME280;9420;50.876;7.012;2022-08-19T01:01:00;100792.19;;;35.45;47.42
19553;BME280;9420;50.876;7.012;2022-08-19T01:03:28;100799.34;;;34.99;48.75
19553;BME280;9420;50.876;7.012;2022-08-19T01:05:56;100800.00;;;34.52;49.12
19553;BME280;9420;50.876;7.012;2022-08-19T01:08:23;100798.06;;;34.74;48.89
19553;BME280;9420;50.876;7.012;2022-08-19T01:10:54;100795.31;;;34.46;49.33
19553;BME280;9420;50.876;7.012;2022-08-19T01:13:28;100797.59;;;34.42;49.55
19553;BME280;9420;50.876;7.012;2022-08-19T01:16:01;100796.31;;;34.60;49.01
19553;BME280;9420;50.876;7.012;2022-08-19T01:18:32;100796.44;;;34.30;49.41
19553;BME280;9420;50.876;7.012;2022-08-19T01:21:08;100786.81;;;34.34;49.61
19553;BME280;9420;50.876;7.012;2022-08-19T01:23:37;100787.47;;;34.15;50.33
19553;BME280;9420;50.876;7.012;2022-08-19T01:26:14;100786.63;;;33.79;51.13
19553;BME280;9420;50.876;7.012;2022-08-19T01:28:44;100792.16;;;34.21;50.98
19553;BME280;9420;50.876;7.012;2022-08-19T01:31:17;100779.50;;;35.91;46.49
19553;BME280;9420;50.876;7.012;2022-08-19T01:33:45;100771.34;;;36.18;46.08
19553;BME280;9420;50.876;7.012;2022-08-19T01:36:23;100787.03;;;34.12;50.29
19553;BME280;9420;50.876;7.012;2022-08-19T01:38:52;100773.88;;;33.65;52.40
19553;BME280;9420;50.876;7.012;2022-08-19T01:41:20;100783.69;;;33.95;52.30
19553;BME280;9420;50.876;7.012;2022-08-19T01:43:49;100777.00;;;33.83;53.04
19553;BME280;9420;50.876;7.012;2022-08-19T01:46:17;100778.16;;;33.89;52.49
19553;BME280;9420;50.876;7.012;2022-08-19T01:48:44;100778.88;;;33.97;51.75
19553;BME280;9420;50.876;7.012;2022-08-19T01:51:13;100778.31;;;33.87;52.68
19553;BME280;9420;50.876;7.012;2022-08-19T01:53:41;100774.56;;;34.30;51.27
19553;BME280;9420;50.876;7.012;2022-08-19T01:56:09;100776.66;;;34.28;50.92
19553;BME280;9420;50.876;7.012;2022-08-19T01:58:46;100777.84;;;34.19;51.38
19553;BME280;9420;50.876;7.012;2022-08-19T02:01:17;100783.53;;;34.46;50.56
19553;BME280;9420;50.876;7.012;2022-08-19T02:03:45;100790.25;;;34.43;50.58
19553;BME280;9420;50.876;7.012;2022-08-19T02:06:13;100797.59;;;34.64;50.07
19553;BME280;9420;50.876;7.012;2022-08-19T02:08:43;100788.59;;;34.49;50.69
19553;BME280;9420;50.876;7.012;2022-08-19T02:11:20;100788.16;;;35.00;49.32
19553;BME280;9420;50.876;7.012;2022-08-19T02:13:48;100784.06;;;34.83;49.56
19553;BME280;9420;50.876;7.012;2022-08-19T02:16:16;100783.44;;;34.88;49.00
19553;BME280;9420;50.876;7.012;2022-08-19T02:18:43;100783.84;;;34.85;48.97
19553;BME280;9420;50.876;7.012;2022-08-19T02:21:10;100786.66;;;34.42;50.54
19553;BME280;9420;50.876;7.012;2022-08-19T02:23:42;100776.72;;;34.35;50.70
19553;BME280;9420;50.876;7.012;2022-08-19T02:26:13;100786.56;;;34.08;51.81
19553;BME280;9420;50.876;7.012;2022-08-19T02:28:41;100783.13;;;33.64;52.79
19553;BME280;9420;50.876;7.012;2022-08-19T02:31:10;100790.75;;;33.54;53.73
19553;BME280;9420;50.876;7.012;2022-08-19T02:33:37;100772.06;;;33.51;54.03
19553;BME280;9420;50.876;7.012;2022-08-19T02:36:06;100776.19;;;33.47;54.22
19553;BME280;9420;50.876;7.012;2022-08-19T02:38:34;100787.09;;;33.47;54.42
19553;BME280;9420;50.876;7.012;2022-08-19T02:41:05;100785.50;;;33.88;52.93
19553;BME280;9420;50.876;7.012;2022-08-19T02:43:36;100802.13;;;34.08;52.47
19553;BME280;9420;50.876;7.012;2022-08-19T02:46:14;100799.78;;;34.05;52.58
19553;BME280;9420;50.876;7.012;2022-08-19T02:48:43;100800.88;;;34.10;52.79
19553;BME280;9420;50.876;7.012;2022-08-19T02:51:17;100799.53;;;33.85;53.37
19553;BME280;9420;50.876;7.012;2022-08-19T02:53:45;100796.28;;;33.96;53.86
19553;BME280;9420;50.876;7.012;2022-08-19T02:56:12;100783.50;;;33.61;54.51
19553;BME280;9420;50.876;7.012;2022-08-19T02:58:42;100792.66;;;33.53;54.88
19553;BME280;9420;50.876;7.012;2022-08-19T03:01:10;100788.72;;;33.77;53.98
19553;BME280;9420;50.876;7.012;2022-08-19T03:03:38;100788.25;;;34.09;53.15
19553;BME280;9420;50.876;7.012;2022-08-19T03:06:09;100794.59;;;34.59;52.05
19553;BME280;9420;50.876;7.012;2022-08-19T03:08:39;100790.97;;;34.52;51.88
19553;BME280;9420;50.876;7.012;2022-08-19T03:11:13;100800.03;;;34.10;53.21
19553;BME280;9420;50.876;7.012;2022-08-19T03:13:41;100795.09;;;34.20;52.59
19553;BME280;9420;50.876;7.012;2022-08-19T03:16:10;100802.13;;;33.72;53.67
19553;BME280;9420;50.876;7.012;2022-08-19T03:18:37;100796.31;;;33.46;54.74
19553;BME280;9420;50.876;7.012;2022-08-19T03:21:06;100806.81;;;33.78;53.67
19553;BME280;9420;50.876;7.012;2022-08-19T03:23:33;100802.22;;;33.79;53.61
19553;BME280;9420;50.876;7.012;2022-08-19T03:26:04;100812.31;;;33.49;55.02
19553;BME280;9420;50.876;7.012;2022-08-19T03:28:32;100803.88;;;33.29;55.73
19553;BME280;9420;50.876;7.012;2022-08-19T03:31:06;100813.50;;;34.11;53.90
19553;BME280;9420;50.876;7.012;2022-08-19T03:33:35;100805.03;;;33.71;55.23
19553;BME280;9420;50.876;7.012;2022-08-19T03:36:10;100814.44;;;33.83;54.90
19553;BME280;9420;50.876;7.012;2022-08-19T03:38:42;100816.94;;;33.63;55.42
19553;BME280;9420;50.876;7.012;2022-08-19T03:41:12;100813.59;;;33.82;54.96
19553;BME280;9420;50.876;7.012;2022-08-19T03:43:40;100816.63;;;33.94;54.00
19553;BME280;9420;50.876;7.012;2022-08-19T03:46:13;100818.53;;;33.43;55.39
19553;BME280;9420;50.876;7.012;2022-08-19T03:48:42;100825.56;;;33.67;54.99
19553;BME280;9420;50.876;7.012;2022-08-19T03:51:17;100823.72;;;33.52;54.84
19553;BME280;9420;50.876;7.012;2022-08-19T03:53:45;100823.59;;;33.46;54.85
19553;BME280;9420;50.876;7.012;2022-08-19T03:56:13;100822.41;;;33.19;56.16
19553;BME280;9420;50.876;7.012;2022-08-19T03:58:43;100819.88;;;33.18;56.48
19553;BME280;9420;50.876;7.012;2022-08-19T04:01:14;100820.44;;;33.28;55.90
19553;BME280;9420;50.876;7.012;2022-08-19T04:03:44;100823.28;;;33.20;56.32
19553;BME280;9420;50.876;7.012;2022-08-19T04:06:15;100819.19;;;33.45;55.75
19553;BME280;9420;50.876;7.012;2022-08-19T04:08:45;100813.75;;;33.30;55.94
19553;BME280;9420;50.876;7.012;2022-08-19T04:11:17;100826.09;;;33.12;56.69
19553;BME280;9420;50.876;7.012;2022-08-19T04:13:46;100830.97;;;33.31;56.33
19553;BME280;9420;50.876;7.012;2022-08-19T04:16:14;100830.69;;;33.55;55.98
19553;BME280;9420;50.876;7.012;2022-08-19T04:18:41;100832.84;;;33.95;54.20
19553;BME280;9420;50.876;7.012;2022-08-19T04:21:15;100838.00;;;33.69;54.76
19553;BME280;9420;50.876;7.012;2022-08-19T04:23:43;100845.06;;;33.78;53.25
19553;BME280;9420;50.876;7.012;2022-08-19T04:26:13;100840.75;;;33.69;53.82
19553;BME280;9420;50.876;7.012;2022-08-19T04:28:41;100843.41;;;33.19;54.59
19553;BME280;9420;50.876;7.012;2022-08-19T04:31:15;100851.69;;;33.11;55.30
19553;BME280;9420;50.876;7.012;2022-08-19T04:33:43;100845.56;;;33.23;55.10
19553;BME280;9420;50.876;7.012;2022-08-19T04:36:17;100839.63;;;33.49;54.33
19553;BME280;9420;50.876;7.012;2022-08-19T04:38:46;100846.59;;;33.66;54.03
19553;BME280;9420;50.876;7.012;2022-08-19T04:41:14;100850.00;;;33.24;55.64
19553;BME280;9420;50.876;7.012;2022-08-19T04:43:58;100846.66;;;33.43;55.73
19553;BME280;9420;50.876;7.012;2022-08-19T04:46:26;100840.91;;;32.95;57.15
19553;BME280;9420;50.876;7.012;2022-08-19T04:48:54;100842.19;;;33.21;57.03
19553;BME280;9420;50.876;7.012;2022-08-19T04:51:23;100846.97;;;33.34;56.19
19553;BME280;9420;50.876;7.012;2022-08-19T04:53:50;100846.59;;;33.66;55.54
19553;BME280;9420;50.876;7.012;2022-08-19T04:56:20;100854.81;;;33.51;55.93
19553;BME280;9420;50.876;7.012;2022-08-19T04:58:49;100851.88;;;33.53;56.03
19553;BME280;9420;50.876;7.012;2022-08-19T05:01:20;100850.91;;;33.46;56.47
19553;BME280;9420;50.876;7.012;2022-08-19T05:03:49;100852.25;;;33.50;56.70
19553;BME280;9420;50.876;7.012;2022-08-19T05:06:20;100849.59;;;33.42;56.91
19553;BME280;9420;50.876;7.012;2022-08-19T05:08:49;100862.69;;;33.61;56.81
19553;BME280;9420;50.876;7.012;2022-08-19T05:11:19;100866.63;;;33.15;58.63
19553;BME280;9420;50.876;7.012;2022-08-19T05:13:47;100867.09;;;33.62;58.10
19553;BME280;9420;50.876;7.012;2022-08-19T05:16:18;100874.63;;;33.02;59.20
19553;BME280;9420;50.876;7.012;2022-08-19T05:18:48;100878.97;;;33.11;59.48
19553;BME280;9420;50.876;7.012;2022-08-19T05:21:34;100883.28;;;33.05;60.79
19553;BME280;9420;50.876;7.012;2022-08-19T05:24:20;100878.59;;;33.43;59.00
19553;BME280;9420;50.876;7.012;2022-08-19T05:26:52;100885.56;;;33.31;59.18
19553;BME280;9420;50.876;7.012;2022-08-19T05:29:24;100878.78;;;33.56;58.45
19553;BME280;9420;50.876;7.012;2022-08-19T05:31:54;100885.19;;;33.34;59.07
19553;BME280;9420;50.876;7.012;2022-08-19T05:34:24;100882.56;;;34.20;57.13
19553;BME280;9420;50.876;7.012;2022-08-19T05:36:57;100888.75;;;33.78;58.31
19553;BME280;9420;50.876;7.012;2022-08-19T05:39:29;100886.72;;;33.51;58.75
19553;BME280;9420;50.876;7.012;2022-08-19T05:42:01;100890.44;;;33.21;59.93
19553;BME280;9420;50.876;7.012;2022-08-19T05:44:32;100893.09;;;33.73;60.48
19553;BME280;9420;50.876;7.012;2022-08-19T05:47:01;100892.84;;;32.86;64.22
19553;BME280;9420;50.876;7.012;2022-08-19T05:49:33;100897.97;;;33.19;64.22
19553;BME280;9420;50.876;7.012;2022-08-19T05:52:02;100889.69;;;33.27;64.15
19553;BME280;9420;50.876;7.012;2022-08-19T05:54:30;100891.19;;;33.44;64.64
19553;BME280;9420;50.876;7.012;2022-08-19T05:56:57;100888.78;;;32.97;67.26
19553;BME280;9420;50.876;7.012;2022-08-19T05:59:24;100888.13;;;33.61;64.79
19553;BME280;9420;50.876;7.012;2022-08-19T06:01:52;100885.75;;;33.15;65.38
19553;BME280;9420;50.876;7.012;2022-08-19T06:04:23;100884.38;;;32.36;68.72
19553;BME280;9420;50.876;7.012;2022-08-19T06:06:55;100874.00;;;32.92;67.55
19553;BME280;9420;50.876;7.012;2022-08-19T06:09:24;100882.78;;;32.64;69.50
19553;BME280;9420;50.876;7.012;2022-08-19T06:11:54;100874.28;;;33.34;66.07
19553;BME280;9420;50.876;7.012;2022-08-19T06:14:29;100881.22;;;33.07;67.53
19553;BME280;9420;50.876;7.012;2022-08-19T06:16:58;100871.66;;;33.55;64.97
19553;BME280;9420;50.876;7.012;2022-08-19T06:19:30;100874.16;;;34.21;62.82
19553;BME280;9420;50.876;7.012;2022-08-19T06:22:00;100883.75;;;32.71;66.82
19553;BME280;9420;50.876;7.012;2022-08-19T06:24:29;100881.25;;;32.39;69.23
19553;BME280;9420;50.876;7.012;2022-08-19T06:26:58;100881.34;;;32.54;70.37
19553;BME280;9420;50.876;7.012;2022-08-19T06:29:27;100872.19;;;33.07;68.46
19553;BME280;9420;50.876;7.012;2022-08-19T06:31:58;100880.75;;;33.47;66.72
19553;BME280;9420;50.876;7.012;2022-08-19T06:34:28;100888.38;;;33.08;67.71
19553;BME280;9420;50.876;7.012;2022-08-19T06:36:58;100877.28;;;33.39;67.19
19553;BME280;9420;50.876;7.012;2022-08-19T06:39:29;100877.16;;;34.26;62.38
19553;BME280;9420;50.876;7.012;2022-08-19T06:42:00;100880.41;;;34.36;62.49
19553;BME280;9420;50.876;7.012;2022-08-19T06:44:31;100891.19;;;33.44;65.92
19553;BME280;9420;50.876;7.012;2022-08-19T06:47:02;100897.78;;;33.93;64.51
19553;BME280;9420;50.876;7.012;2022-08-19T06:49:30;100895.66;;;34.46;62.16
19553;BME280;9420;50.876;7.012;2022-08-19T06:51:59;100885.16;;;34.28;61.10
19553;BME280;9420;50.876;7.012;2022-08-19T06:54:39;100893.09;;;34.86;59.66
19553;BME280;9420;50.876;7.012;2022-08-19T06:57:08;100886.19;;;34.06;64.09
19553;BME280;9420;50.876;7.012;2022-08-19T06:59:40;100894.88;;;34.73;60.01
19553;BME280;9420;50.876;7.012;2022-08-19T07:02:07;100898.97;;;35.11;59.74
19553;BME280;9420;50.876;7.012;2022-08-19T07:04:36;100902.69;;;34.55;61.02
19553;BME280;9420;50.876;7.012;2022-08-19T07:07:09;100902.16;;;34.45;62.40
19553;BME280;9420;50.876;7.012;2022-08-19T07:09:39;100902.00;;;33.96;64.41
19553;BME280;9420;50.876;7.012;2022-08-19T07:12:10;100901.16;;;33.95;63.93
19553;BME280;9420;50.876;7.012;2022-08-19T07:14:38;100905.09;;;34.85;61.52
19553;BME280;9420;50.876;7.012;2022-08-19T07:17:11;100906.56;;;35.09;60.78
19553;BME280;9420;50.876;7.012;2022-08-19T07:19:39;100909.06;;;35.04;58.64
19553;BME280;9420;50.876;7.012;2022-08-19T07:22:10;100915.41;;;34.90;60.93
19553;BME280;9420;50.876;7.012;2022-08-19T07:24:38;100912.94;;;35.16;59.85
19553;BME280;9420;50.876;7.012;2022-08-19T07:27:06;100922.06;;;35.30;59.76
19553;BME280;9420;50.876;7.012;2022-08-19T07:29:37;100911.75;;;34.76;61.29
19553;BME280;9420;50.876;7.012;2022-08-19T07:32:05;100913.69;;;36.13;58.04
19553;BME280;9420;50.876;7.012;2022-08-19T07:34:33;100915.41;;;36.27;55.89
19553;BME280;9420;50.876;7.012;2022-08-19T07:37:04;100916.88;;;36.16;56.12
19553;BME280;9420;50.876;7.012;2022-08-19T07:39:36;100918.03;;;36.48;54.65
19553;BME280;9420;50.876;7.012;2022-08-19T07:42:07;100918.34;;;36.19;54.97
19553;BME280;9420;50.876;7.012;2022-08-19T07:44:36;100917.44;;;36.05;55.29
19553;BME280;9420;50.876;7.012;2022-08-19T07:47:06;100935.13;;;35.55;56.09
19553;BME280;9420;50.876;7.012;2022-08-19T07:49:33;100923.28;;;36.43;54.02
19553;BME280;9420;50.876;7.012;2022-08-19T07:52:04;100922.28;;;38.06;48.52
19553;BME280;9420;50.876;7.012;2022-08-19T07:54:36;100928.22;;;36.93;51.05
19553;BME280;9420;50.876;7.012;2022-08-19T07:57:05;100936.28;;;36.21;52.15
19553;BME280;9420;50.876;7.012;2022-08-19T07:59:32;100937.53;;;36.19;53.93
19553;BME280;9420;50.876;7.012;2022-08-19T08:02:00;100939.38;;;36.85;51.37
19553;BME280;9420;50.876;7.012;2022-08-19T08:04:29;100955.84;;;35.99;52.80
19553;BME280;9420;50.876;7.012;2022-08-19T08:07:15;100949.53;;;35.70;53.71
19553;BME280;9420;50.876;7.012;2022-08-19T08:10:03;100948.47;;;36.06;53.70
19553;BME280;9420;50.876;7.012;2022-08-19T08:12:36;100955.78;;;36.46;52.32
19553;BME280;9420;50.876;7.012;2022-08-19T08:15:11;100948.47;;;36.12;53.79
19553;BME280;9420;50.876;7.012;2022-08-19T08:17:42;100958.03;;;35.88;53.15
19553;BME280;9420;50.876;7.012;2022-08-19T08:20:11;100954.25;;;36.37;52.55
19553;BME280;9420;50.876;7.012;2022-08-19T08:22:43;100955.38;;;36.55;52.38
19553;BME280;9420;50.876;7.012;2022-08-19T08:25:30;100955.47;;;37.40;49.83
19553;BME280;9420;50.876;7.012;2022-08-19T08:27:58;100959.41;;;36.73;50.29
19553;BME280;9420;50.876;7.012;2022-08-19T08:30:28;100954.94;;;37.89;48.39
19553;BME280;9420;50.876;7.012;2022-08-19T08:32:56;100963.00;;;36.47;50.35
19553;BME280;9420;50.876;7.012;2022-08-19T08:35:24;100951.84;;;36.08;51.67
19553;BME280;9420;50.876;7.012;2022-08-19T08:37:53;100953.25;;;37.88;48.25
19553;BME280;9420;50.876;7.012;2022-08-19T08:40:29;100949.91;;;36.68;50.54
19553;BME280;9420;50.876;7.012;2022-08-19T08:43:03;100955.25;;;36.96;49.49
19553;BME280;9420;50.876;7.012;2022-08-19T08:48:18;100948.09;;;38.05;46.85
19553;BME280;9420;50.876;7.012;2022-08-19T08:50:47;100951.19;;;36.79;49.90
19553;BME280;9420;50.876;7.012;2022-08-19T08:53:20;100959.03;;;36.82;49.89
19553;BME280;9420;50.876;7.012;2022-08-19T08:55:49;100962.19;;;37.58;48.82
19553;BME280;9420;50.876;7.012;2022-08-19T08:58:25;100952.03;;;36.73;50.47
19553;BME280;9420;50.876;7.012;2022-08-19T09:00:53;100959.91;;;38.12;47.24
19553;BME280;9420;50.876;7.012;2022-08-19T09:03:24;100963.84;;;36.67;49.84
19553;BME280;9420;50.876;7.012;2022-08-19T09:05:59;100964.28;;;36.71;50.22
19553;BME280;9420;50.876;7.012;2022-08-19T09:08:40;100952.09;;;37.38;49.01
19553;BME280;9420;50.876;7.012;2022-08-19T09:11:18;100960.47;;;37.83;47.23
19553;BME280;9420;50.876;7.012;2022-08-19T09:14:04;100953.31;;;37.29;48.74
19553;BME280;9420;50.876;7.012;2022-08-19T09:16:36;100955.84;;;37.51;48.47
19553;BME280;9420;50.876;7.012;2022-08-19T09:19:07;100953.09;;;38.59;46.45
19553;BME280;9420;50.876;7.012;2022-08-19T09:21:36;100958.41;;;37.06;49.10
19553;BME280;9420;50.876;7.012;2022-08-19T09:24:06;100954.56;;;38.92;45.94
19553;BME280;9420;50.876;7.012;2022-08-19T09:26:34;100947.94;;;38.38;45.86
19553;BME280;9420;50.876;7.012;2022-08-19T09:29:02;100950.97;;;38.67;44.81
19553;BME280;9420;50.876;7.012;2022-08-19T09:31:31;100946.56;;;39.16;43.86
19553;BME280;9420;50.876;7.012;2022-08-19T09:33:59;100936.78;;;40.47;40.80
19553;BME280;9420;50.876;7.012;2022-08-19T09:36:29;100930.06;;;40.84;39.90
19553;BME280;9420;50.876;7.012;2022-08-19T09:38:58;100934.41;;;38.36;42.42
19553;BME280;9420;50.876;7.012;2022-08-19T09:41:26;100944.03;;;38.58;43.10
19553;BME280;9420;50.876;7.012;2022-08-19T09:43:57;100946.34;;;38.55;43.34
19553;BME280;9420;50.876;7.012;2022-08-19T09:46:27;100939.09;;;38.98;42.10
19553;BME280;9420;50.876;7.012;2022-08-19T09:48:58;100938.31;;;39.77;41.02
19553;BME280;9420;50.876;7.012;2022-08-19T09:51:27;100936.69;;;39.87;39.91
19553;BME280;9420;50.876;7.012;2022-08-19T09:53:59;100924.00;;;40.64;38.56
19553;BME280;9420;50.876;7.012;2022-08-19T09:56:28;100936.69;;;38.01;41.80
19553;BME280;9420;50.876;7.012;2022-08-19T09:58:58;100938.09;;;39.17;40.63
19553;BME280;9420;50.876;7.012;2022-08-19T10:01:29;100914.13;;;40.97;37.01
19553;BME280;9420;50.876;7.012;2022-08-19T10:03:58;100935.13;;;40.27;38.37
19553;BME280;9420;50.876;7.012;2022-08-19T10:06:28;100934.00;;;39.44;39.05
19553;BME280;9420;50.876;7.012;2022-08-19T10:08:59;100925.06;;;40.51;37.01
19553;BME280;9420;50.876;7.012;2022-08-19T10:11:28;100920.06;;;40.83;35.90
19553;BME280;9420;50.876;7.012;2022-08-19T10:13:59;100922.28;;;40.21;36.37
19553;BME280;9420;50.876;7.012;2022-08-19T10:16:30;100930.13;;;39.88;36.32
19553;BME280;9420;50.876;7.012;2022-08-19T10:18:58;100931.66;;;39.66;36.85
19553;BME280;9420;50.876;7.012;2022-08-19T10:21:30;100926.88;;;39.55;36.27
19553;BME280;9420;50.876;7.012;2022-08-19T10:24:01;100925.34;;;40.43;35.97
19553;BME280;9420;50.876;7.012;2022-08-19T10:26:32;100938.38;;;40.06;35.41
19553;BME280;9420;50.876;7.012;2022-08-19T10:29:04;100921.94;;;42.10;33.36
19553;BME280;9420;50.876;7.012;2022-08-19T10:31:33;100920.34;;;42.42;32.59
19553;BME280;9420;50.876;7.012;2022-08-19T10:34:01;100922.03;;;43.04;31.73
19553;BME280;9420;50.876;7.012;2022-08-19T10:36:32;100917.28;;;42.55;32.28
19553;BME280;9420;50.876;7.012;2022-08-19T10:39:04;100910.88;;;41.35;33.65
19553;BME280;9420;50.876;7.012;2022-08-19T10:41:34;100904.31;;;40.72;34.61
19553;BME280;9420;50.876;7.012;2022-08-19T10:44:07;100908.47;;;40.92;34.22
19553;BME280;9420;50.876;7.012;2022-08-19T10:46:39;100913.09;;;40.80;34.40
19553;BME280;9420;50.876;7.012;2022-08-19T10:49:09;100910.81;;;40.06;34.79
19553;BME280;9420;50.876;7.012;2022-08-19T10:51:38;100915.81;;;41.10;33.70
19553;BME280;9420;50.876;7.012;2022-08-19T10:54:26;100901.78;;;42.54;31.41
19553;BME280;9420;50.876;7.012;2022-08-19T10:57:13;100902.88;;;43.19;31.58
19553;BME280;9420;50.876;7.012;2022-08-19T10:59:41;100902.78;;;42.48;31.38
19553;BME280;9420;50.876;7.012;2022-08-19T11:02:11;100890.84;;;43.30;31.64
19553;BME280;9420;50.876;7.012;2022-08-19T11:04:39;100890.19;;;42.74;31.24
19553;BME280;9420;50.876;7.012;2022-08-19T11:07:08;100889.00;;;42.08;32.27
19553;BME280;9420;50.876;7.012;2022-08-19T11:09:40;100901.47;;;40.90;32.96
19553;BME280;9420;50.876;7.012;2022-08-19T11:12:08;100888.22;;;42.13;31.45
19553;BME280;9420;50.876;7.012;2022-08-19T11:14:36;100887.59;;;42.67;30.56
19553;BME280;9420;50.876;7.012;2022-08-19T11:17:05;100896.09;;;39.40;34.84
19553;BME280;9420;50.876;7.012;2022-08-19T11:19:34;100890.88;;;40.04;34.50
19553;BME280;9420;50.876;7.012;2022-08-19T11:22:01;100893.16;;;40.78;33.21
19553;BME280;9420;50.876;7.012;2022-08-19T11:24:31;100893.97;;;40.26;34.83
19553;BME280;9420;50.876;7.012;2022-08-19T11:27:04;100883.16;;;42.38;32.19
19553;BME280;9420;50.876;7.012;2022-08-19T11:29:33;100882.84;;;40.74;33.04
19553;BME280;9420;50.876;7.012;2022-08-19T11:32:06;100878.81;;;41.85;33.15
19553;BME280;9420;50.876;7.012;2022-08-19T11:34:35;100879.88;;;40.87;33.20
19553;BME280;9420;50.876;7.012;2022-08-19T11:37:03;100888.63;;;42.05;31.84
19553;BME280;9420;50.876;7.012;2022-08-19T11:39:34;100884.06;;;42.88;29.84
19553;BME280;9420;50.876;7.012;2022-08-19T11:42:05;100881.91;;;42.90;30.50
19553;BME280;9420;50.876;7.012;2022-08-19T11:44:54;100867.69;;;44.91;27.80
19553;BME280;9420;50.876;7.012;2022-08-19T11:47:22;100862.59;;;45.62;26.75
19553;BME280;9420;50.876;7.012;2022-08-19T11:49:49;100877.00;;;41.91;30.57
19553;BME280;9420;50.876;7.012;2022-08-19T11:52:17;100882.53;;;43.30;29.27
19553;BME280;9420;50.876;7.012;2022-08-19T11:54:44;100869.63;;;42.53;29.54
19553;BME280;9420;50.876;7.012;2022-08-19T11:57:11;100862.75;;;44.08;28.56
19553;BME280;9420;50.876;7.012;2022-08-19T11:59:40;100882.66;;;40.87;31.59
19553;BME280;9420;50.876;7.012;2022-08-19T12:02:07;100883.66;;;41.78;30.82
19553;BME280;9420;50.876;7.012;2022-08-19T12:04:36;100877.03;;;42.97;29.39
19553;BME280;9420;50.876;7.012;2022-08-19T12:07:03;100869.84;;;44.79;27.35
19553;BME280;9420;50.876;7.012;2022-08-19T12:09:30;100874.69;;;44.09;27.97
19553;BME280;9420;50.876;7.012;2022-08-19T12:12:00;100866.34;;;45.41;27.09
19553;BME280;9420;50.876;7.012;2022-08-19T12:14:27;100871.59;;;44.90;27.52
19553;BME280;9420;50.876;7.012;2022-08-19T12:16:56;100875.56;;;42.45;29.83
19553;BME280;9420;50.876;7.012;2022-08-19T12:19:23;100864.94;;;45.38;27.47
19553;BME280;9420;50.876;7.012;2022-08-19T12:21:59;100872.06;;;47.82;25.01
19553;BME280;9420;50.876;7.012;2022-08-19T12:24:27;100878.88;;;40.70;30.07
19553;BME280;9420;50.876;7.012;2022-08-19T12:26:55;100874.91;;;41.70;29.45
19553;BME280;9420;50.876;7.012;2022-08-19T12:29:24;100873.34;;;42.75;28.34
19553;BME280;9420;50.876;7.012;2022-08-19T12:31:56;100856.97;;;46.79;25.42
19553;BME280;9420;50.876;7.012;2022-08-19T12:34:28;100858.88;;;45.46;26.07
19553;BME280;9420;50.876;7.012;2022-08-19T12:37:01;100851.88;;;46.06;24.85
19553;BME280;9420;50.876;7.012;2022-08-19T12:39:28;100856.13;;;46.28;24.54
19553;BME280;9420;50.876;7.012;2022-08-19T12:41:57;100850.53;;;46.89;23.85
19553;BME280;9420;50.876;7.012;2022-08-19T12:44:24;100842.75;;;46.51;23.86
19553;BME280;9420;50.876;7.012;2022-08-19T12:46:51;100847.78;;;46.44;23.15
19553;BME280;9420;50.876;7.012;2022-08-19T12:49:18;100842.59;;;45.80;23.17
19553;BME280;9420;50.876;7.012;2022-08-19T12:51:45;100844.31;;;47.37;22.23
19553;BME280;9420;50.876;7.012;2022-08-19T12:54:14;100845.91;;;45.72;23.52
19553;BME280;9420;50.876;7.012;2022-08-19T12:56:41;100845.97;;;45.87;24.06
19553;BME280;9420;50.876;7.012;2022-08-19T12:59:10;100835.88;;;45.56;23.94
19553;BME280;9420;50.876;7.012;2022-08-19T13:01:37;100825.19;;;48.57;21.46
19553;BME280;9420;50.876;7.012;2022-08-19T13:04:04;100828.81;;;46.25;22.65
19553;BME280;9420;50.876;7.012;2022-08-19T13:06:31;100821.56;;;47.05;22.40
19553;BME280;9420;50.876;7.012;2022-08-19T13:08:58;100814.88;;;48.19;22.40
19553;BME280;9420;50.876;7.012;2022-08-19T13:11:27;100819.75;;;47.44;22.95
19553;BME280;9420;50.876;7.012;2022-08-19T13:13:58;100824.38;;;46.75;23.97
19553;BME280;9420;50.876;7.012;2022-08-19T13:16:26;100813.69;;;45.81;24.55
19553;BME280;9420;50.876;7.012;2022-08-19T13:18:55;100817.69;;;46.30;23.76